createdAt,value
2018-12-26T00:00:59.595Z,5.02
2018-12-26T00:03:27.758Z,5.03
2018-12-26T00:05:55.215Z,5.11
2018-12-26T00:08:24.815Z,5.19
2018-12-26T00:10:52.323Z,5.27
2018-12-26T00:13:19.991Z,5.29
2018-12-26T00:15:47.732Z,5.35
2018-12-26T00:18:15.232Z,5.35
2018-12-26T00:20:42.747Z,5.26
2018-12-26T00:23:11.217Z,5.22
2018-12-26T00:25:38.742Z,5.13
2018-12-26T00:28:06.240Z,5.09
2018-12-26T00:30:33.932Z,5.08
2018-12-26T00:35:34.130Z,5.12
2018-12-26T00:38:01.725Z,5.09
2018-12-26T00:40:29.584Z,5.13
2018-12-26T00:42:57.120Z,5.10
2018-12-26T00:45:24.636Z,5.08
2018-12-26T00:47:53.024Z,5.07
2018-12-26T00:50:20.532Z,5.15
2018-12-26T00:52:48.210Z,5.12
2018-12-26T00:55:15.795Z,5.12
2018-12-26T00:57:43.316Z,5.03
2018-12-26T01:00:10.968Z,5.00
2018-12-26T01:02:39.351Z,5.05
2018-12-26T01:05:06.935Z,5.09
2018-12-26T01:07:35.370Z,5.12
2018-12-26T01:10:03.206Z,5.16
2018-12-26T01:12:30.783Z,5.22
2018-12-26T01:14:58.266Z,5.18
2018-12-26T01:17:25.833Z,5.09
2018-12-26T01:19:53.414Z,5.01
2018-12-26T01:22:21.359Z,4.96
2018-12-26T01:24:48.926Z,4.92
2018-12-26T01:27:16.608Z,4.92
2018-12-26T01:29:44.198Z,4.99
2018-12-26T01:32:11.829Z,4.94
2018-12-26T01:34:40.735Z,5.01
2018-12-26T01:37:08.318Z,4.96
2018-12-26T01:39:35.835Z,4.89
2018-12-26T01:42:03.467Z,4.93
2018-12-26T01:44:30.962Z,4.97
2018-12-26T01:46:58.556Z,4.96
2018-12-26T01:49:26.218Z,4.84
2018-12-26T01:51:53.738Z,4.90
2018-12-26T01:54:21.250Z,4.92
2018-12-26T01:56:48.763Z,4.94
2018-12-26T01:59:16.250Z,4.93
2018-12-26T02:01:43.859Z,4.92
2018-12-26T02:04:11.643Z,4.95
2018-12-26T02:06:39.244Z,4.98
2018-12-26T02:09:06.819Z,4.94
2018-12-26T02:11:34.415Z,4.88
2018-12-26T02:14:02.217Z,4.95
2018-12-26T02:16:29.713Z,5.00
2018-12-26T02:18:57.225Z,5.03
2018-12-26T02:21:24.816Z,4.99
2018-12-26T02:26:26.115Z,4.96
2018-12-26T02:28:53.687Z,4.97
2018-12-26T02:31:21.249Z,4.93
2018-12-26T02:33:48.861Z,4.99
2018-12-26T02:36:17.217Z,4.87
2018-12-26T02:38:44.839Z,4.90
2018-12-26T02:41:12.495Z,4.87
2018-12-26T02:43:40.517Z,4.78
2018-12-26T02:46:08.413Z,4.72
2018-12-26T02:48:35.991Z,4.68
2018-12-26T02:51:03.991Z,4.65
2018-12-26T02:53:32.652Z,4.60
2018-12-26T02:56:00.321Z,4.65
2018-12-26T02:58:28.715Z,4.56
2018-12-26T03:00:56.769Z,4.62
2018-12-26T03:03:24.944Z,4.62
2018-12-26T03:05:52.692Z,4.65
2018-12-26T03:08:20.629Z,4.70
2018-12-26T03:10:48.983Z,4.67
2018-12-26T03:13:16.631Z,4.75
2018-12-26T03:15:44.364Z,4.74
2018-12-26T03:18:11.925Z,4.72
2018-12-26T03:20:39.764Z,4.83
2018-12-26T03:23:07.350Z,4.73
2018-12-26T03:25:35.223Z,4.78
2018-12-26T03:28:03.063Z,4.79
2018-12-26T03:30:30.650Z,4.79
2018-12-26T03:32:58.294Z,4.83
2018-12-26T03:35:25.993Z,4.87
2018-12-26T03:37:53.543Z,4.69
2018-12-26T03:40:21.103Z,4.63
2018-12-26T03:42:48.796Z,4.75
2018-12-26T03:45:16.542Z,4.74
2018-12-26T03:47:44.890Z,4.79
2018-12-26T03:50:12.497Z,4.83
2018-12-26T03:52:40.057Z,4.87
2018-12-26T03:55:07.560Z,4.83
2018-12-26T03:57:35.145Z,4.72
2018-12-26T04:00:02.784Z,4.59
2018-12-26T04:02:30.253Z,4.58
2018-12-26T04:04:57.767Z,4.53
2018-12-26T04:07:25.360Z,4.56
2018-12-26T04:09:52.872Z,4.59
2018-12-26T04:12:21.147Z,4.68
2018-12-26T04:14:48.687Z,4.82
2018-12-26T04:17:16.223Z,4.79
2018-12-26T04:19:43.677Z,4.77
2018-12-26T04:22:11.212Z,4.61
2018-12-26T04:24:38.901Z,4.55
2018-12-26T04:27:15.306Z,4.53
2018-12-26T04:29:34.739Z,4.60
2018-12-26T04:32:02.444Z,4.66
2018-12-26T04:34:31.703Z,4.71
2018-12-26T04:36:59.187Z,4.75
2018-12-26T04:39:26.738Z,4.72
2018-12-26T04:41:54.346Z,4.70
2018-12-26T04:44:21.931Z,4.74
2018-12-26T04:46:49.608Z,4.68
2018-12-26T04:49:17.287Z,4.68
2018-12-26T04:51:45.013Z,4.68
2018-12-26T04:54:12.662Z,4.59
2018-12-26T04:56:40.180Z,4.49
2018-12-26T04:59:07.846Z,4.43
2018-12-26T05:01:35.403Z,4.47
2018-12-26T05:04:03.530Z,4.29
2018-12-26T05:06:31.505Z,4.30
2018-12-26T05:08:59.090Z,4.27
2018-12-26T05:11:26.621Z,4.12
2018-12-26T05:13:55.152Z,4.11
2018-12-26T05:16:23.852Z,4.20
2018-12-26T05:18:51.595Z,4.26
2018-12-26T05:21:19.152Z,4.28
2018-12-26T05:23:47.613Z,4.35
2018-12-26T05:26:16.150Z,4.35
2018-12-26T05:28:43.638Z,4.43
2018-12-26T05:31:11.299Z,4.44
2018-12-26T05:33:38.823Z,4.46
2018-12-26T05:36:06.439Z,4.41
2018-12-26T05:38:34.043Z,4.33
2018-12-26T05:41:01.588Z,4.26
2018-12-26T05:43:29.165Z,4.18
2018-12-26T05:45:56.772Z,4.31
2018-12-26T05:48:24.312Z,4.44
2018-12-26T05:50:51.839Z,4.45
2018-12-26T05:53:19.540Z,4.54
2018-12-26T05:55:47.117Z,4.51
2018-12-26T05:58:14.643Z,4.37
2018-12-26T06:00:42.377Z,4.39
2018-12-26T06:03:10.310Z,4.44
2018-12-26T06:05:37.817Z,4.43
2018-12-26T06:08:05.405Z,4.42
2018-12-26T06:10:33.057Z,4.47
2018-12-26T06:13:00.582Z,4.53
2018-12-26T06:15:28.103Z,4.65
2018-12-26T06:17:55.622Z,4.56
2018-12-26T06:20:23.098Z,4.54
2018-12-26T06:22:50.582Z,4.54
2018-12-26T06:25:18.136Z,4.52
2018-12-26T06:27:51.403Z,4.61
2018-12-26T06:30:13.647Z,4.60
2018-12-26T06:32:41.113Z,4.57
2018-12-26T06:35:08.587Z,4.42
2018-12-26T06:37:36.953Z,4.34
2018-12-26T06:40:04.495Z,4.18
2018-12-26T06:42:31.953Z,4.26
2018-12-26T06:44:59.531Z,4.27
2018-12-26T06:47:27.692Z,4.31
2018-12-26T06:49:55.254Z,4.28
2018-12-26T06:52:22.927Z,4.39
2018-12-26T06:54:50.605Z,4.40
2018-12-26T06:57:18.274Z,4.39
2018-12-26T06:59:46.018Z,4.36
2018-12-26T07:02:13.547Z,4.21
2018-12-26T07:04:41.204Z,4.28
2018-12-26T07:07:09.084Z,4.37
2018-12-26T07:09:36.564Z,4.51
2018-12-26T07:12:04.725Z,4.60
2018-12-26T07:14:32.171Z,4.58
2018-12-26T07:16:59.699Z,4.44
2018-12-26T07:19:27.174Z,4.36
2018-12-26T07:21:54.851Z,4.32
2018-12-26T07:24:22.386Z,4.33
2018-12-26T07:26:49.883Z,4.33
2018-12-26T07:29:17.535Z,4.38
2018-12-26T07:31:45.089Z,4.50
2018-12-26T07:34:12.771Z,4.52
2018-12-26T07:36:40.797Z,4.49
2018-12-26T07:39:08.549Z,4.51
2018-12-26T07:41:36.112Z,4.60
2018-12-26T07:44:03.907Z,4.60
2018-12-26T07:46:31.417Z,4.55
2018-12-26T07:48:58.954Z,4.44
2018-12-26T07:51:26.519Z,4.49
2018-12-26T07:53:54.398Z,4.54
2018-12-26T07:56:21.973Z,4.61
2018-12-26T07:58:49.642Z,4.57
2018-12-26T08:01:17.239Z,4.45
2018-12-26T08:03:46.258Z,4.54
2018-12-26T08:06:13.938Z,4.53
2018-12-26T08:08:41.514Z,4.51
2018-12-26T08:11:09.077Z,4.44
2018-12-26T08:13:36.690Z,4.54
2018-12-26T08:16:04.250Z,4.62
2018-12-26T08:18:31.775Z,4.67
2018-12-26T08:20:59.306Z,4.65
2018-12-26T08:23:26.852Z,4.73
2018-12-26T08:25:54.500Z,4.65
2018-12-26T08:28:26.500Z,4.67
2018-12-26T08:30:49.773Z,4.69
2018-12-26T08:33:17.299Z,4.53
2018-12-26T08:35:45.362Z,4.35
2018-12-26T08:38:12.882Z,4.46
2018-12-26T08:40:40.423Z,4.62
2018-12-26T08:43:08.964Z,4.65
2018-12-26T08:45:37.225Z,4.63
2018-12-26T08:48:05.366Z,4.71
2018-12-26T08:50:33.031Z,4.76
2018-12-26T08:53:00.485Z,4.66
2018-12-26T08:55:28.079Z,4.60
2018-12-26T08:57:55.592Z,4.54
2018-12-26T09:00:23.780Z,4.54
2018-12-26T09:02:52.143Z,4.63
2018-12-26T09:05:20.481Z,4.70
2018-12-26T09:07:48.039Z,4.82
2018-12-26T09:10:16.518Z,4.81
2018-12-26T09:12:44.026Z,4.76
2018-12-26T09:15:11.556Z,4.87
2018-12-26T09:17:39.291Z,4.85
2018-12-26T09:20:07.373Z,4.77
2018-12-26T09:22:34.755Z,4.72
2018-12-26T09:25:02.245Z,4.69
2018-12-26T09:27:29.707Z,4.71
2018-12-26T09:29:57.315Z,4.53
2018-12-26T09:32:24.970Z,4.64
2018-12-26T09:34:52.606Z,4.84
2018-12-26T09:37:20.179Z,4.81
2018-12-26T09:39:48.736Z,4.88
2018-12-26T09:42:16.278Z,5.10
2018-12-26T09:44:44.551Z,5.36
2018-12-26T09:47:13.351Z,5.18
2018-12-26T09:49:41.006Z,5.02
2018-12-26T09:52:08.866Z,5.02
2018-12-26T09:54:36.604Z,5.06
2018-12-26T09:57:04.273Z,5.09
2018-12-26T09:59:31.751Z,5.22
2018-12-26T10:01:59.430Z,5.40
2018-12-26T10:04:27.145Z,5.30
2018-12-26T10:06:55.477Z,5.05
2018-12-26T10:09:25.030Z,4.95
2018-12-26T10:11:53.913Z,5.09
2018-12-26T10:14:21.961Z,5.10
2018-12-26T10:16:49.587Z,5.14
2018-12-26T10:19:17.240Z,5.05
2018-12-26T10:21:46.322Z,4.81
2018-12-26T10:24:14.068Z,4.88
2018-12-26T10:26:41.757Z,5.21
2018-12-26T10:29:09.721Z,5.35
2018-12-26T10:31:38.298Z,5.38
2018-12-26T10:34:06.145Z,5.36
2018-12-26T10:36:36.517Z,5.38
2018-12-26T10:39:05.534Z,5.27
2018-12-26T10:41:34.583Z,5.36
2018-12-26T10:44:04.442Z,5.19
2018-12-26T10:46:34.168Z,5.43
2018-12-26T10:49:01.853Z,5.65
2018-12-26T10:51:30.369Z,5.71
2018-12-26T10:53:58.812Z,5.73
2018-12-26T10:56:26.417Z,5.85
2018-12-26T10:58:54.830Z,5.76
2018-12-26T11:01:22.345Z,5.73
2018-12-26T11:03:50.001Z,5.82
2018-12-26T11:06:18.288Z,5.83
2018-12-26T11:08:45.857Z,5.86
2018-12-26T11:11:13.313Z,6.02
2018-12-26T11:13:40.901Z,6.10
2018-12-26T11:16:08.521Z,6.16
2018-12-26T11:18:36.287Z,6.07
2018-12-26T11:21:04.067Z,6.16
2018-12-26T11:23:31.741Z,6.27
2018-12-26T11:25:59.486Z,6.23
2018-12-26T11:28:27.113Z,6.21
2018-12-26T11:30:55.117Z,6.07
2018-12-26T11:33:22.775Z,5.93
2018-12-26T11:35:50.594Z,5.70
2018-12-26T11:38:18.875Z,5.51
2018-12-26T11:40:47.247Z,5.60
2018-12-26T11:43:14.965Z,5.62
2018-12-26T11:45:43.156Z,5.78
2018-12-26T11:48:13.864Z,5.67
2018-12-26T11:50:42.191Z,5.22
2018-12-26T11:53:09.736Z,5.15
2018-12-26T11:55:37.222Z,5.11
2018-12-26T11:58:04.837Z,5.16
2018-12-26T12:00:33.258Z,5.24
2018-12-26T12:03:01.348Z,5.39
2018-12-26T12:05:28.907Z,5.38
2018-12-26T12:07:56.388Z,5.25
2018-12-26T12:10:24.213Z,5.10
2018-12-26T12:12:51.676Z,5.26
2018-12-26T12:15:19.170Z,5.47
2018-12-26T12:17:46.836Z,5.83
2018-12-26T12:20:14.600Z,6.19
2018-12-26T12:22:42.064Z,6.49
2018-12-26T12:25:10.025Z,7.37
2018-12-26T12:27:37.529Z,8.88
2018-12-26T12:30:05.341Z,10.10
2018-12-26T12:32:34.642Z,9.79
2018-12-26T12:35:02.193Z,8.99
2018-12-26T12:37:29.787Z,8.68
2018-12-26T12:39:57.927Z,9.28
2018-12-26T12:42:26.593Z,8.72
2018-12-26T12:44:54.102Z,8.47
2018-12-26T12:49:55.419Z,7.75
2018-12-26T12:52:22.890Z,7.69
2018-12-26T12:54:50.520Z,7.44
2018-12-26T12:57:18.056Z,7.88
2018-12-26T12:59:45.646Z,9.40
2018-12-26T13:02:13.162Z,9.50
2018-12-26T13:04:40.988Z,9.52
2018-12-26T13:07:07.993Z,10.54
2018-12-26T13:09:35.106Z,11.72
2018-12-26T13:12:02.157Z,13.07
2018-12-26T13:14:29.169Z,13.31
2018-12-26T13:16:56.233Z,12.17
2018-12-26T13:19:23.345Z,13.04
2018-12-26T13:21:50.394Z,14.04
2018-12-26T13:24:17.454Z,14.21
2018-12-26T13:26:44.509Z,14.04
2018-12-26T13:29:11.904Z,14.01
2018-12-26T13:31:38.981Z,13.86
2018-12-26T13:34:05.978Z,11.63
2018-12-26T13:36:33.488Z,9.92
2018-12-26T13:39:00.597Z,9.21
2018-12-26T13:41:27.581Z,8.68
2018-12-26T13:43:57.327Z,8.40
2018-12-26T13:46:24.572Z,8.19
2018-12-26T13:48:52.701Z,8.17
2018-12-26T13:51:20.675Z,7.77
2018-12-26T13:53:47.788Z,7.44
2018-12-26T13:56:15.647Z,7.15
2018-12-26T13:58:43.557Z,7.08
2018-12-26T14:01:11.854Z,7.01
2018-12-26T14:03:39.410Z,6.90
2018-12-26T14:06:07.532Z,6.73
2018-12-26T14:08:35.356Z,6.81
2018-12-26T14:11:02.853Z,6.78
2018-12-26T14:13:31.571Z,6.60
2018-12-26T14:15:59.129Z,6.58
2018-12-26T14:18:27.439Z,6.46
2018-12-26T14:20:54.931Z,6.32
2018-12-26T14:23:22.469Z,6.44
2018-12-26T14:25:50.165Z,6.42
2018-12-26T14:28:17.789Z,6.34
2018-12-26T14:30:45.376Z,6.24
2018-12-26T14:33:13.509Z,6.25
2018-12-26T14:35:42.070Z,6.23
2018-12-26T14:38:10.054Z,6.38
2018-12-26T14:40:37.523Z,6.45
2018-12-26T14:43:07.905Z,6.31
2018-12-26T14:45:35.075Z,5.89
2018-12-26T14:48:02.156Z,5.66
2018-12-26T14:50:29.266Z,5.73
2018-12-26T14:52:57.199Z,5.93
2018-12-26T14:55:24.560Z,5.98
2018-12-26T14:57:51.599Z,5.88
2018-12-26T15:00:20.365Z,5.81
2018-12-26T15:02:47.516Z,5.86
2018-12-26T15:05:14.725Z,5.87
2018-12-26T15:07:41.871Z,5.88
2018-12-26T15:10:09.211Z,5.74
2018-12-26T15:12:38.243Z,5.78
2018-12-26T15:15:05.494Z,5.76
2018-12-26T15:17:32.620Z,5.59
2018-12-26T15:19:59.696Z,5.43
2018-12-26T15:22:26.966Z,5.42
2018-12-26T15:24:53.978Z,5.26
2018-12-26T15:27:21.298Z,5.11
2018-12-26T15:29:48.398Z,5.09
2018-12-26T15:32:15.541Z,5.08
2018-12-26T15:34:42.540Z,4.94
2018-12-26T15:37:10.936Z,4.97
2018-12-26T15:39:38.294Z,4.95
2018-12-26T15:42:06.685Z,4.94
2018-12-26T15:44:34.565Z,4.88
2018-12-26T15:47:02.223Z,4.72
2018-12-26T15:49:29.777Z,4.56
2018-12-26T15:51:57.305Z,4.48
2018-12-26T15:54:24.756Z,4.40
2018-12-26T15:56:53.008Z,4.36
2018-12-26T15:59:20.481Z,4.27
2018-12-26T16:01:48.023Z,4.27
2018-12-26T16:04:15.603Z,4.23
2018-12-26T16:06:43.184Z,4.17
2018-12-26T16:09:10.696Z,4.18
2018-12-26T16:11:38.330Z,4.24
2018-12-26T16:14:05.812Z,4.25
2018-12-26T16:16:33.893Z,4.31
2018-12-26T16:19:01.785Z,4.29
2018-12-26T16:21:29.364Z,4.26
2018-12-26T16:23:56.889Z,4.32
2018-12-26T16:26:24.372Z,4.29
2018-12-26T16:28:52.747Z,4.25
2018-12-26T16:31:20.359Z,4.31
2018-12-26T16:33:48.325Z,4.29
2018-12-26T16:36:15.934Z,4.23
2018-12-26T16:38:43.456Z,4.26
2018-12-26T16:41:11.002Z,4.32
2018-12-26T16:43:38.514Z,4.36
2018-12-26T16:46:05.977Z,4.35
2018-12-26T16:48:33.530Z,4.39
2018-12-26T16:51:01.096Z,4.40
2018-12-26T16:53:28.636Z,4.46
2018-12-26T16:55:56.262Z,4.51
2018-12-26T16:58:23.801Z,4.55
2018-12-26T17:00:55.115Z,4.59
2018-12-26T17:03:18.965Z,4.62
2018-12-26T17:05:46.602Z,4.55
2018-12-26T17:08:14.265Z,4.59
2018-12-26T17:10:41.755Z,4.60
2018-12-26T17:13:09.259Z,4.63
2018-12-26T17:15:38.165Z,4.60
2018-12-26T17:18:05.799Z,4.65
2018-12-26T17:20:33.381Z,4.63
2018-12-26T17:23:03.034Z,4.60
2018-12-26T17:25:30.663Z,4.48
2018-12-26T17:27:58.246Z,4.48
2018-12-26T17:30:25.878Z,4.57
2018-12-26T17:33:00.500Z,4.65
2018-12-26T17:35:22.765Z,4.63
2018-12-26T17:37:51.295Z,4.52
2018-12-26T17:40:18.751Z,4.39
2018-12-26T17:42:46.326Z,4.41
2018-12-26T17:45:15.274Z,4.53
2018-12-26T17:47:42.905Z,4.57
2018-12-26T17:50:22.037Z,4.61
2018-12-26T17:52:49.581Z,4.56
2018-12-26T17:55:18.898Z,4.52
2018-12-26T17:57:46.460Z,4.51
2018-12-26T18:00:14.018Z,4.52
2018-12-26T18:02:42.369Z,4.59
2018-12-26T18:05:09.888Z,4.50
2018-12-26T18:07:37.721Z,4.44
2018-12-26T18:10:05.644Z,4.50
2018-12-26T18:12:34.474Z,4.54
2018-12-26T18:15:02.248Z,4.48
2018-12-26T18:17:29.884Z,4.49
2018-12-26T18:19:58.198Z,4.55
2018-12-26T18:22:30.712Z,4.56
2018-12-26T18:25:00.322Z,4.59
2018-12-26T18:27:27.306Z,4.51
2018-12-26T18:29:55.095Z,4.48
2018-12-26T18:32:23.844Z,4.42
2018-12-26T18:34:51.408Z,4.36
2018-12-26T18:37:19.024Z,4.36
2018-12-26T18:39:46.654Z,4.47
2018-12-26T18:42:14.314Z,4.39
2018-12-26T18:44:41.880Z,4.39
2018-12-26T18:47:09.634Z,4.48
2018-12-26T18:49:38.225Z,4.48
2018-12-26T18:52:05.991Z,4.55
2018-12-26T18:54:33.700Z,4.48
2018-12-26T18:57:01.482Z,4.38
2018-12-26T18:59:29.014Z,4.37
2018-12-26T19:01:56.515Z,4.45
2018-12-26T19:04:24.155Z,4.44
2018-12-26T19:06:51.889Z,4.44
2018-12-26T19:09:19.342Z,4.45
2018-12-26T19:11:46.808Z,4.42
2018-12-26T19:14:15.300Z,4.47
2018-12-26T19:16:42.806Z,4.47
2018-12-26T19:19:10.309Z,4.46
2018-12-26T19:21:38.848Z,4.38
2018-12-26T19:24:06.321Z,4.30
2018-12-26T19:26:33.798Z,4.31
2018-12-26T19:29:01.946Z,4.29
2018-12-26T19:31:29.735Z,4.30
2018-12-26T19:33:57.265Z,4.35
2018-12-26T19:36:26.425Z,4.32
2018-12-26T19:38:54.112Z,4.34
2018-12-26T19:41:21.663Z,4.34
2018-12-26T19:43:49.307Z,4.26
2018-12-26T19:46:17.877Z,4.23
2018-12-26T19:48:45.516Z,4.32
2018-12-26T19:51:13.156Z,4.40
2018-12-26T19:53:40.918Z,4.38
2018-12-26T19:56:09.358Z,4.27
2018-12-26T19:58:36.844Z,4.36
2018-12-26T20:01:04.749Z,4.34
2018-12-26T20:03:32.425Z,4.28
2018-12-26T20:06:00.046Z,4.25
2018-12-26T20:08:27.686Z,4.20
2018-12-26T20:10:56.439Z,4.19
2018-12-26T20:13:22.302Z,4.18
2018-12-26T20:15:50.135Z,4.19
2018-12-26T20:18:18.864Z,4.15
2018-12-26T20:20:46.426Z,4.12
2018-12-26T20:23:14.176Z,4.12
2018-12-26T20:25:41.751Z,4.10
2018-12-26T20:28:09.367Z,4.11
2018-12-26T20:30:36.965Z,4.08
2018-12-26T20:33:04.566Z,4.05
2018-12-26T20:35:32.163Z,4.02
2018-12-26T20:37:59.689Z,3.93
2018-12-26T20:40:27.253Z,3.97
2018-12-26T20:42:54.809Z,4.00
2018-12-26T20:45:25.124Z,4.04
2018-12-26T20:47:53.644Z,4.01
2018-12-26T20:50:21.165Z,3.91
2018-12-26T20:52:48.763Z,3.79
2018-12-26T20:55:16.361Z,3.89
2018-12-26T20:57:43.994Z,3.84
2018-12-26T21:00:11.702Z,3.63
2018-12-26T21:02:39.195Z,3.35
2018-12-26T21:05:07.118Z,3.24
2018-12-26T21:07:34.698Z,3.15
2018-12-26T21:10:02.211Z,3.10
2018-12-26T21:12:29.660Z,3.28
2018-12-26T21:14:57.139Z,3.46
2018-12-26T21:17:24.672Z,3.41
2018-12-26T21:19:52.249Z,3.36
2018-12-26T21:22:19.857Z,3.39
2018-12-26T21:24:51.135Z,3.44
2018-12-26T21:27:18.923Z,3.54
2018-12-26T21:29:46.533Z,3.59
2018-12-26T21:32:15.365Z,3.65
2018-12-26T21:34:43.056Z,3.75
2018-12-26T21:37:10.572Z,3.66
2018-12-26T21:39:38.333Z,3.58
2018-12-26T21:42:05.832Z,3.49
2018-12-26T21:44:34.745Z,3.48
2018-12-26T21:47:02.472Z,3.55
2018-12-26T21:49:30.071Z,3.57
2018-12-26T21:51:58.527Z,3.64
2018-12-26T21:54:26.082Z,3.69
2018-12-26T21:56:53.735Z,3.77
2018-12-26T21:59:21.496Z,3.88
2018-12-26T22:01:50.026Z,3.97
2018-12-26T22:04:20.538Z,3.97
2018-12-26T22:06:48.135Z,3.89
2018-12-26T22:09:18.791Z,3.88
2018-12-26T22:11:46.502Z,3.78
2018-12-26T22:14:14.302Z,3.81
2018-12-26T22:16:41.946Z,3.71
2018-12-26T22:19:10.495Z,3.81
2018-12-26T22:21:38.408Z,3.86
2018-12-26T22:24:05.922Z,3.87
2018-12-26T22:26:34.302Z,3.95
2018-12-26T22:29:03.602Z,3.97
2018-12-26T22:31:33.234Z,3.93
2018-12-26T22:34:00.741Z,4.04
2018-12-26T22:36:28.446Z,4.07
2018-12-26T22:38:55.943Z,4.15
2018-12-26T22:41:23.708Z,4.13
2018-12-26T22:43:51.203Z,4.12
2018-12-26T22:46:21.672Z,4.12
2018-12-26T22:48:49.278Z,3.98
2018-12-26T22:51:17.965Z,3.92
2018-12-26T22:53:45.518Z,3.97
2018-12-26T22:56:13.207Z,4.02
2018-12-26T22:58:40.747Z,4.08
2018-12-26T23:01:08.735Z,3.98
2018-12-26T23:03:36.627Z,3.99
2018-12-26T23:06:04.336Z,4.13
2018-12-26T23:08:31.906Z,4.17
2018-12-26T23:10:59.404Z,4.20
2018-12-26T23:13:28.824Z,4.16
2018-12-26T23:15:56.963Z,4.08
2018-12-26T23:18:24.414Z,3.98
2018-12-26T23:20:52.017Z,3.94
2018-12-26T23:23:19.461Z,3.90
2018-12-26T23:25:47.166Z,3.92
2018-12-26T23:28:14.727Z,3.81
2018-12-26T23:30:42.236Z,3.77
2018-12-26T23:33:10.057Z,3.83
2018-12-26T23:35:39.411Z,3.87
2018-12-26T23:38:06.889Z,3.85
2018-12-26T23:40:34.478Z,3.84
2018-12-26T23:43:02.067Z,3.85
2018-12-26T23:45:30.411Z,3.87
2018-12-26T23:47:59.064Z,3.96
2018-12-26T23:50:28.131Z,3.98
2018-12-26T23:52:55.855Z,3.93
2018-12-26T23:55:23.388Z,3.73
2018-12-26T23:57:52.044Z,3.82
